createdAt,value
2022-09-21T00:01:09.647Z,7.93
2022-09-21T00:03:37.024Z,7.80
2022-09-21T00:06:08.415Z,7.93
2022-09-21T00:08:35.072Z,8.30
2022-09-21T00:11:03.558Z,7.43
2022-09-21T00:13:33.129Z,7.83
2022-09-21T00:15:59.787Z,6.80
2022-09-21T00:18:26.536Z,7.90
2022-09-21T00:20:53.044Z,7.13
2022-09-21T00:23:20.436Z,7.60
2022-09-21T00:25:47.089Z,7.53
2022-09-21T00:28:13.554Z,6.97
2022-09-21T00:30:39.997Z,6.90
2022-09-21T00:33:06.971Z,6.47
2022-09-21T00:35:33.821Z,6.10
2022-09-21T00:38:02.445Z,5.87
2022-09-21T00:40:29.912Z,6.00
2022-09-21T00:43:16.923Z,5.47
2022-09-21T00:45:44.132Z,5.80
2022-09-21T00:48:10.753Z,5.97
2022-09-21T00:50:41.477Z,5.30
2022-09-21T00:53:08.169Z,5.43
2022-09-21T00:55:39.895Z,5.50
2022-09-21T00:58:10.124Z,5.57
2022-09-21T01:00:37.455Z,6.03
2022-09-21T01:03:04.952Z,5.23
2022-09-21T01:05:31.585Z,5.03
2022-09-21T01:08:02.087Z,5.13
2022-09-21T01:10:33.099Z,6.07
2022-09-21T01:13:25.407Z,5.83
2022-09-21T01:16:01.553Z,5.63
2022-09-21T01:18:35.310Z,5.63
2022-09-21T01:21:21.686Z,5.60
2022-09-21T01:24:21.259Z,4.77
2022-09-21T01:27:09.305Z,5.30
2022-09-21T01:29:38.419Z,5.40
2022-09-21T01:32:15.501Z,5.27
2022-09-21T01:34:49.327Z,5.10
2022-09-21T01:37:26.832Z,5.00
2022-09-21T01:39:56.695Z,5.37
2022-09-21T01:42:24.990Z,4.57
2022-09-21T01:44:51.951Z,4.90
2022-09-21T01:47:18.778Z,4.80
2022-09-21T01:49:49.131Z,4.67
2022-09-21T01:52:21.550Z,4.13
2022-09-21T01:54:52.098Z,4.40
2022-09-21T01:57:36.728Z,4.23
2022-09-21T02:00:05.809Z,4.10
2022-09-21T02:02:41.761Z,4.00
2022-09-21T02:05:08.694Z,4.37
2022-09-21T02:07:35.957Z,4.60
2022-09-21T02:10:03.098Z,4.30
2022-09-21T02:12:32.174Z,4.40
2022-09-21T02:14:59.895Z,4.27
2022-09-21T02:17:50.212Z,3.63
2022-09-21T02:20:30.564Z,4.37
2022-09-21T02:23:14.271Z,4.13
2022-09-21T02:25:43.817Z,4.57
2022-09-21T02:28:27.260Z,3.83
2022-09-21T02:31:17.883Z,3.97
2022-09-21T02:33:59.347Z,4.13
2022-09-21T02:36:35.627Z,4.33
2022-09-21T02:39:11.516Z,4.17
2022-09-21T02:41:41.517Z,3.90
2022-09-21T02:44:13.176Z,3.80
2022-09-21T02:46:49.148Z,4.03
2022-09-21T02:49:26.341Z,4.67
2022-09-21T02:51:56.792Z,3.70
2022-09-21T02:54:27.057Z,4.23
2022-09-21T02:56:54.533Z,4.00
2022-09-21T02:59:23.678Z,4.30
2022-09-21T03:01:50.650Z,4.27
2022-09-21T03:04:17.631Z,4.37
2022-09-21T03:06:44.076Z,4.40
2022-09-21T03:09:10.542Z,4.43
2022-09-21T03:11:36.983Z,5.00
2022-09-21T03:14:08.618Z,4.70
2022-09-21T03:16:36.252Z,4.43
2022-09-21T03:19:02.797Z,4.97
2022-09-21T03:21:29.754Z,4.30
2022-09-21T03:23:56.224Z,4.30
2022-09-21T03:26:22.898Z,4.93
2022-09-21T03:28:50.324Z,5.00
2022-09-21T03:31:17.111Z,5.10
2022-09-21T03:33:43.649Z,4.57
2022-09-21T03:36:10.355Z,4.73
2022-09-21T03:38:37.803Z,4.83
2022-09-21T03:41:05.113Z,4.30
2022-09-21T03:43:32.227Z,4.87
2022-09-21T03:45:58.786Z,4.47
2022-09-21T03:48:25.293Z,4.63
2022-09-21T03:50:51.913Z,4.70
2022-09-21T03:53:18.374Z,4.60
2022-09-21T03:55:44.870Z,4.50
2022-09-21T03:58:11.315Z,4.77
2022-09-21T04:00:39.207Z,5.00
2022-09-21T04:03:05.732Z,5.10
2022-09-21T04:05:32.442Z,4.60
2022-09-21T04:07:58.926Z,4.47
2022-09-21T04:10:29.295Z,4.50
2022-09-21T04:13:01.263Z,4.43
2022-09-21T04:15:28.547Z,4.63
2022-09-21T04:17:55.476Z,4.57
2022-09-21T04:20:22.291Z,4.70
2022-09-21T04:22:48.944Z,4.50
2022-09-21T04:25:16.183Z,4.47
2022-09-21T04:27:42.848Z,4.30
2022-09-21T04:30:12.149Z,4.43
2022-09-21T04:32:38.938Z,4.30
2022-09-21T04:35:06.118Z,4.20
2022-09-21T04:37:32.591Z,4.73
2022-09-21T04:39:59.129Z,4.43
2022-09-21T04:42:27.603Z,4.93
2022-09-21T04:44:54.151Z,4.53
2022-09-21T04:47:23.643Z,4.43
2022-09-21T04:49:50.273Z,4.30
2022-09-21T04:52:19.158Z,4.83
2022-09-21T04:54:47.097Z,4.00
2022-09-21T04:57:14.796Z,4.40
2022-09-21T04:59:41.288Z,4.17
2022-09-21T05:02:07.775Z,4.20
2022-09-21T05:04:34.249Z,4.13
2022-09-21T05:07:00.845Z,4.13
2022-09-21T05:09:45.965Z,4.30
2022-09-21T05:12:12.428Z,3.93
2022-09-21T05:14:38.889Z,4.20
2022-09-21T05:17:05.402Z,4.20
2022-09-21T05:19:31.900Z,4.13
2022-09-21T05:21:58.369Z,4.23
2022-09-21T05:24:24.875Z,3.93
2022-09-21T05:26:51.356Z,3.70
2022-09-21T05:29:18.204Z,3.93
2022-09-21T05:31:56.166Z,3.77
2022-09-21T05:34:44.124Z,4.00
2022-09-21T05:37:37.854Z,3.83
2022-09-21T05:40:05.672Z,3.80
2022-09-21T05:42:32.797Z,3.80
2022-09-21T05:44:59.678Z,3.80
2022-09-21T05:47:40.127Z,4.33
2022-09-21T05:50:28.245Z,4.20
2022-09-21T05:53:16.299Z,3.73
2022-09-21T05:55:55.558Z,4.00
2022-09-21T05:58:40.602Z,3.77
2022-09-21T06:01:18.117Z,4.43
2022-09-21T06:03:44.956Z,4.20
2022-09-21T06:06:11.428Z,4.30
2022-09-21T06:08:37.908Z,4.50
2022-09-21T06:11:04.526Z,5.17
2022-09-21T06:13:31.204Z,5.30
2022-09-21T06:15:58.543Z,5.60
2022-09-21T06:18:24.990Z,5.37
2022-09-21T06:20:51.484Z,4.63
2022-09-21T06:23:24.169Z,5.23
2022-09-21T06:25:58.184Z,5.03
2022-09-21T06:28:25.533Z,5.17
2022-09-21T06:30:53.395Z,6.00
2022-09-21T06:33:21.307Z,5.37
2022-09-21T06:35:59.177Z,6.20
2022-09-21T06:38:26.836Z,7.20
2022-09-21T06:40:53.887Z,7.60
2022-09-21T06:43:20.433Z,8.37
2022-09-21T06:45:54.836Z,9.17
2022-09-21T06:48:21.808Z,9.80
2022-09-21T06:50:48.611Z,9.47
2022-09-21T06:53:15.517Z,10.37
2022-09-21T06:55:42.222Z,10.40
2022-09-21T06:58:08.729Z,10.57
2022-09-21T07:00:35.586Z,9.70
2022-09-21T07:03:02.048Z,10.03
2022-09-21T07:05:28.515Z,10.37
2022-09-21T07:07:59.158Z,11.47
2022-09-21T07:10:26.358Z,10.60
2022-09-21T07:12:52.980Z,10.73
2022-09-21T07:15:19.628Z,9.73
2022-09-21T07:17:51.777Z,9.07
2022-09-21T07:20:18.832Z,8.57
2022-09-21T07:22:45.263Z,8.03
2022-09-21T07:25:11.835Z,8.43
2022-09-21T07:27:38.682Z,8.17
2022-09-21T07:30:06.428Z,7.07
2022-09-21T07:32:33.024Z,8.17
2022-09-21T07:34:59.542Z,6.13
2022-09-21T07:37:26.267Z,5.90
2022-09-21T07:39:53.391Z,5.97
2022-09-21T07:42:21.558Z,5.60
2022-09-21T07:44:48.447Z,6.83
2022-09-21T07:47:15.417Z,7.00
2022-09-21T07:49:42.688Z,6.63
2022-09-21T07:52:11.103Z,6.70
2022-09-21T07:54:37.902Z,6.70
2022-09-21T07:57:22.957Z,5.97
2022-09-21T07:59:49.433Z,4.20
2022-09-21T08:02:16.123Z,4.13
2022-09-21T08:04:42.633Z,4.10
2022-09-21T08:07:09.107Z,4.77
2022-09-21T08:09:35.592Z,3.77
2022-09-21T08:12:02.280Z,3.77
2022-09-21T08:14:29.360Z,3.80
2022-09-21T08:16:55.894Z,3.50
2022-09-21T08:19:25.840Z,3.80
2022-09-21T08:21:57.274Z,3.40
2022-09-21T08:24:26.745Z,2.70
2022-09-21T08:26:54.031Z,2.57
2022-09-21T08:29:20.525Z,2.23
2022-09-21T08:31:47.389Z,2.73
2022-09-21T08:34:14.343Z,2.17
2022-09-21T08:36:41.137Z,3.10
2022-09-21T08:39:08.453Z,2.10
2022-09-21T08:41:59.341Z,2.20
2022-09-21T08:44:33.599Z,2.00
2022-09-21T08:47:08.482Z,1.90
2022-09-21T08:49:36.881Z,2.10
2022-09-21T08:52:07.400Z,2.13
2022-09-21T08:54:51.780Z,1.67
2022-09-21T08:57:19.110Z,1.50
2022-09-21T08:59:47.266Z,1.40
2022-09-21T09:02:41.037Z,1.30
2022-09-21T09:05:48.651Z,1.40
2022-09-21T09:08:24.306Z,1.40
2022-09-21T09:11:09.353Z,1.60
2022-09-21T09:13:48.538Z,1.10
2022-09-21T09:16:21.184Z,1.10
2022-09-21T09:18:51.813Z,1.00
2022-09-21T09:21:30.255Z,0.90
2022-09-21T09:24:20.623Z,1.10
2022-09-21T09:27:02.115Z,1.00
2022-09-21T09:29:28.520Z,1.20
2022-09-21T09:31:55.985Z,1.40
2022-09-21T09:34:26.604Z,0.90
2022-09-21T09:36:59.600Z,1.20
2022-09-21T09:39:28.486Z,1.00
2022-09-21T09:42:07.238Z,1.00
2022-09-21T09:45:18.352Z,1.10
2022-09-21T09:47:50.715Z,1.03
2022-09-21T09:50:32.686Z,1.07
2022-09-21T09:53:15.141Z,1.10
2022-09-21T09:55:45.337Z,0.90
2022-09-21T09:58:31.007Z,1.17
2022-09-21T10:00:58.958Z,1.00
2022-09-21T10:03:27.172Z,1.03
2022-09-21T10:06:11.966Z,1.00
2022-09-21T10:08:39.921Z,0.93
2022-09-21T10:11:06.498Z,1.00
2022-09-21T10:13:38.318Z,0.90
2022-09-21T10:16:25.114Z,0.97
2022-09-21T10:18:58.899Z,1.00
2022-09-21T10:21:35.553Z,1.10
2022-09-21T10:24:05.073Z,0.90
2022-09-21T10:26:34.901Z,0.97
2022-09-21T10:29:07.287Z,1.20
2022-09-21T10:31:34.463Z,0.90
2022-09-21T10:34:04.034Z,0.90
2022-09-21T10:36:35.744Z,1.00
2022-09-21T10:39:19.530Z,0.87
2022-09-21T10:41:59.424Z,0.70
2022-09-21T10:44:38.711Z,1.40
2022-09-21T10:47:31.326Z,0.80
2022-09-21T10:50:00.685Z,0.60
2022-09-21T10:52:40.282Z,0.80
2022-09-21T10:55:14.554Z,0.80
2022-09-21T10:57:42.201Z,0.80
2022-09-21T11:00:35.700Z,0.77
2022-09-21T11:03:26.784Z,1.07
2022-09-21T11:05:53.659Z,1.00
2022-09-21T11:08:35.927Z,0.70
2022-09-21T11:11:30.361Z,0.60
2022-09-21T11:14:06.201Z,0.80
2022-09-21T11:16:37.708Z,0.80
2022-09-21T11:19:28.694Z,0.80
2022-09-21T11:22:05.830Z,0.70
2022-09-21T11:24:51.935Z,0.77
2022-09-21T11:27:22.956Z,0.60
2022-09-21T11:30:00.462Z,0.70
2022-09-21T11:32:40.528Z,0.73
2022-09-21T11:35:27.310Z,0.67
2022-09-21T11:38:20.685Z,0.83
2022-09-21T11:41:00.698Z,0.70
2022-09-21T11:43:36.119Z,0.87
2022-09-21T11:46:27.528Z,0.70
2022-09-21T11:49:00.062Z,0.80
2022-09-21T11:51:38.839Z,0.70
2022-09-21T11:54:31.698Z,0.80
2022-09-21T11:57:19.078Z,0.90
2022-09-21T12:00:07.545Z,0.97
2022-09-21T12:02:59.437Z,0.80
2022-09-21T12:06:04.712Z,0.80
2022-09-21T12:09:01.321Z,0.70
2022-09-21T12:12:03.701Z,0.70
2022-09-21T12:14:42.648Z,0.83
2022-09-21T12:17:27.663Z,0.67
2022-09-21T12:20:20.934Z,0.80
2022-09-21T12:22:49.542Z,0.90
2022-09-21T12:25:27.441Z,0.90
2022-09-21T12:28:11.529Z,0.80
2022-09-21T12:30:39.908Z,0.80
2022-09-21T12:33:14.060Z,1.00
2022-09-21T12:36:10.419Z,1.10
2022-09-21T12:38:43.048Z,0.90
2022-09-21T12:41:34.422Z,0.90
2022-09-21T12:44:17.720Z,1.13
2022-09-21T12:46:49.075Z,0.80
2022-09-21T12:49:31.537Z,0.93
2022-09-21T12:52:03.653Z,1.00
2022-09-21T12:54:42.201Z,1.13
2022-09-21T12:57:42.517Z,0.90
2022-09-21T13:00:12.360Z,0.90
2022-09-21T13:02:50.865Z,1.00
2022-09-21T13:05:23.364Z,1.00
2022-09-21T13:08:04.946Z,0.93
2022-09-21T13:10:55.717Z,0.93
2022-09-21T13:13:26.900Z,0.90
2022-09-21T13:15:53.752Z,0.80
2022-09-21T13:18:35.091Z,0.70
2022-09-21T13:21:22.094Z,0.90
2022-09-21T13:23:56.832Z,1.00
2022-09-21T13:26:51.437Z,0.97
2022-09-21T13:29:18.939Z,1.30
2022-09-21T13:32:04.448Z,1.27
2022-09-21T13:34:35.249Z,1.00
2022-09-21T13:37:20.060Z,0.90
2022-09-21T13:40:01.875Z,1.00
2022-09-21T13:42:28.517Z,0.90
2022-09-21T13:44:55.998Z,1.07
2022-09-21T13:47:33.681Z,0.80
2022-09-21T13:50:03.223Z,0.80
2022-09-21T13:52:40.453Z,0.80
2022-09-21T13:55:22.831Z,0.90
2022-09-21T13:57:54.373Z,0.80
2022-09-21T14:00:28.005Z,0.97
2022-09-21T14:02:58.803Z,0.90
2022-09-21T14:05:27.061Z,1.03
2022-09-21T14:08:00.167Z,1.00
2022-09-21T14:10:27.364Z,0.80
2022-09-21T14:12:53.856Z,1.03
2022-09-21T14:15:20.246Z,0.97
2022-09-21T14:18:16.788Z,1.40
2022-09-21T14:21:08.217Z,0.90
2022-09-21T14:23:36.630Z,0.97
2022-09-21T14:26:21.124Z,0.97
2022-09-21T14:28:51.356Z,1.10
2022-09-21T14:31:26.289Z,1.10
2022-09-21T14:33:59.394Z,1.40
2022-09-21T14:36:42.042Z,1.00
2022-09-21T14:39:39.185Z,1.20
2022-09-21T14:42:15.892Z,1.17
2022-09-21T14:44:42.600Z,1.10
2022-09-21T14:47:18.465Z,1.10
2022-09-21T14:50:05.568Z,1.27
2022-09-21T14:52:42.214Z,1.00
2022-09-21T14:55:22.634Z,1.00
2022-09-21T14:58:17.141Z,1.30
2022-09-21T15:00:46.251Z,1.23
2022-09-21T15:03:39.241Z,1.27
2022-09-21T15:06:28.700Z,1.10
2022-09-21T15:09:29.455Z,1.03
2022-09-21T15:12:01.996Z,1.00
2022-09-21T15:14:36.792Z,1.30
2022-09-21T15:17:24.355Z,0.90
2022-09-21T15:20:02.938Z,1.17
2022-09-21T15:22:47.711Z,1.10
2022-09-21T15:25:20.278Z,1.33
2022-09-21T15:27:47.440Z,1.23
2022-09-21T15:30:26.268Z,1.10
2022-09-21T15:32:58.126Z,1.20
2022-09-21T15:35:30.452Z,1.20
2022-09-21T15:38:00.946Z,1.00
2022-09-21T15:40:36.553Z,1.10
2022-09-21T15:43:09.019Z,1.23
2022-09-21T15:45:55.736Z,1.20
2022-09-21T15:48:26.091Z,1.30
2022-09-21T15:50:57.908Z,1.40
2022-09-21T15:53:36.475Z,1.37
2022-09-21T15:56:03.089Z,1.03
2022-09-21T15:58:37.298Z,1.30
2022-09-21T16:01:15.817Z,1.40
2022-09-21T16:03:45.364Z,1.50
2022-09-21T16:06:28.382Z,2.10
2022-09-21T16:08:55.118Z,2.47
2022-09-21T16:11:25.668Z,1.43
2022-09-21T16:14:32.053Z,1.70
2022-09-21T16:17:13.756Z,2.00
2022-09-21T16:19:44.580Z,1.33
2022-09-21T16:22:17.559Z,1.30
2022-09-21T16:24:52.829Z,1.53
2022-09-21T16:27:21.427Z,1.60
2022-09-21T16:29:50.177Z,1.70
2022-09-21T16:32:28.138Z,1.80
2022-09-21T16:35:31.461Z,1.70
2022-09-21T16:37:58.915Z,1.87
2022-09-21T16:40:28.815Z,2.20
2022-09-21T16:42:56.074Z,2.37
2022-09-21T16:45:29.672Z,2.23
2022-09-21T16:47:57.630Z,2.23
2022-09-21T16:50:24.534Z,2.43
2022-09-21T16:52:52.507Z,2.03
2022-09-21T16:55:22.419Z,1.60
2022-09-21T16:57:50.830Z,1.80
2022-09-21T17:00:22.101Z,1.70
2022-09-21T17:02:48.929Z,1.40
2022-09-21T17:05:39.210Z,1.47
2022-09-21T17:08:28.719Z,1.80
2022-09-21T17:22:22.480Z,2.23
2022-09-21T17:25:20.250Z,2.63
2022-09-21T17:27:54.446Z,2.20
2022-09-21T17:34:15.165Z,2.20
2022-09-21T17:37:00.631Z,2.50
2022-09-21T17:39:30.206Z,2.73
2022-09-21T17:45:43.061Z,2.53
2022-09-21T17:51:07.419Z,1.80
2022-09-21T17:53:41.876Z,2.10
2022-09-21T17:56:26.022Z,1.90
2022-09-21T17:59:14.701Z,3.07
2022-09-21T18:12:16.353Z,2.37
2022-09-21T18:14:55.772Z,2.23
2022-09-21T18:18:05.272Z,11.07
2022-09-21T18:32:06.716Z,1.97
2022-09-21T18:35:13.529Z,1.80
2022-09-21T18:37:55.161Z,1.60
2022-09-21T18:40:36.714Z,1.70
2022-09-21T18:43:36.417Z,1.80
2022-09-21T18:46:20.810Z,2.20
2022-09-21T18:49:13.775Z,1.80
2022-09-21T18:51:47.321Z,1.80
2022-09-21T18:54:20.849Z,1.90
2022-09-21T18:59:42.835Z,1.90
2022-09-21T19:06:11.984Z,3.03
2022-09-21T19:08:54.389Z,4.03
2022-09-21T19:11:52.202Z,4.37
2022-09-21T19:14:37.185Z,18.03
2022-09-21T19:17:20.784Z,63.97
2022-09-21T19:20:25.173Z,42.30
2022-09-21T19:23:00.259Z,20.10
2022-09-21T19:25:47.288Z,12.00
2022-09-21T19:28:53.521Z,13.43
2022-09-21T19:31:20.531Z,11.07
2022-09-21T19:33:51.651Z,9.13
2022-09-21T19:36:19.308Z,7.13
2022-09-21T19:38:45.973Z,5.50
2022-09-21T19:41:31.677Z,3.87
2022-09-21T19:44:35.899Z,5.07
2022-09-21T19:47:18.473Z,4.47
2022-09-21T19:49:56.617Z,3.73
2022-09-21T19:52:32.172Z,3.70
2022-09-21T19:55:17.266Z,3.63
2022-09-21T19:58:02.886Z,3.90
2022-09-21T20:00:30.218Z,3.87
2022-09-21T20:03:03.856Z,4.03
2022-09-21T20:05:51.617Z,3.10
2022-09-21T20:08:50.192Z,3.40
2022-09-21T20:11:23.520Z,3.20
2022-09-21T20:14:30.101Z,3.10
2022-09-21T20:17:10.660Z,2.90
2022-09-21T20:19:40.066Z,2.63
2022-09-21T20:22:17.433Z,2.83
2022-09-21T20:25:03.666Z,2.87
2022-09-21T20:27:55.504Z,2.60
2022-09-21T20:30:24.507Z,2.67
2022-09-21T20:32:53.733Z,2.60
2022-09-21T20:35:31.168Z,2.57
2022-09-21T20:38:02.184Z,3.17
2022-09-21T20:40:33.212Z,2.73
2022-09-21T20:43:03.916Z,3.00
2022-09-21T20:45:33.637Z,2.93
2022-09-21T20:48:15.731Z,2.77
2022-09-21T20:50:49.445Z,2.73
2022-09-21T20:53:16.742Z,3.13
2022-09-21T20:55:55.438Z,3.13
2022-09-21T20:58:22.392Z,2.97
2022-09-21T21:00:52.203Z,2.80
2022-09-21T21:03:20.596Z,3.17
2022-09-21T21:05:47.071Z,2.60
2022-09-21T21:08:13.536Z,2.93
2022-09-21T21:10:46.986Z,2.90
2022-09-21T21:13:13.698Z,2.63
2022-09-21T21:15:40.161Z,2.83
2022-09-21T21:18:10.157Z,2.40
2022-09-21T21:21:14.020Z,2.43
2022-09-21T21:23:59.064Z,2.80
2022-09-21T21:26:44.209Z,3.10
2022-09-21T21:29:15.004Z,3.20
2022-09-21T21:31:53.907Z,4.00
2022-09-21T21:34:20.764Z,4.27
2022-09-21T21:36:47.205Z,5.07
2022-09-21T21:39:14.331Z,4.70
2022-09-21T21:41:43.229Z,4.77
2022-09-21T21:44:11.520Z,4.97
2022-09-21T21:46:38.140Z,5.23
2022-09-21T21:49:05.045Z,4.90
2022-09-21T21:51:31.599Z,4.97
2022-09-21T21:53:58.240Z,5.47
2022-09-21T21:56:24.721Z,5.60
2022-09-21T21:58:56.134Z,5.37
2022-09-21T22:01:26.322Z,5.77
2022-09-21T22:03:58.162Z,6.77
2022-09-21T22:06:25.671Z,6.50
2022-09-21T22:08:52.744Z,6.37
2022-09-21T22:11:19.941Z,6.20
2022-09-21T22:13:47.347Z,6.00
2022-09-21T22:16:16.268Z,5.70
2022-09-21T22:18:43.346Z,6.60
2022-09-21T22:21:15.212Z,5.40
2022-09-21T22:23:42.196Z,5.80
2022-09-21T22:26:14.177Z,6.13
2022-09-21T22:28:42.512Z,5.83
2022-09-21T22:31:18.048Z,7.73
2022-09-21T22:33:45.164Z,8.80
2022-09-21T22:36:19.470Z,16.50
2022-09-21T22:38:46.559Z,17.03
2022-09-21T22:41:22.715Z,20.83
2022-09-21T22:43:51.300Z,19.20
2022-09-21T22:46:18.271Z,19.73
2022-09-21T22:48:45.514Z,16.73
2022-09-21T22:51:16.226Z,16.03
2022-09-21T22:53:43.252Z,16.97
2022-09-21T22:56:11.721Z,15.83
2022-09-21T22:58:42.111Z,15.50
2022-09-21T23:01:12.600Z,13.43
2022-09-21T23:03:40.508Z,10.87
2022-09-21T23:06:09.625Z,9.13
2022-09-21T23:08:36.375Z,8.80
2022-09-21T23:11:23.570Z,8.60
2022-09-21T23:13:50.037Z,7.87
2022-09-21T23:16:17.968Z,6.90
2022-09-21T23:18:45.945Z,8.83
2022-09-21T23:21:17.369Z,6.90
2022-09-21T23:24:05.834Z,7.73
2022-09-21T23:26:33.091Z,7.83
2022-09-21T23:29:05.334Z,7.93
2022-09-21T23:31:32.367Z,7.20
2022-09-21T23:34:00.610Z,7.23
2022-09-21T23:36:28.890Z,7.90
2022-09-21T23:38:55.680Z,6.73
2022-09-21T23:41:24.376Z,7.13
2022-09-21T23:43:51.573Z,7.40
2022-09-21T23:46:21.414Z,7.73
2022-09-21T23:48:48.550Z,7.07
2022-09-21T23:51:15.537Z,6.87
2022-09-21T23:53:42.613Z,5.83
2022-09-21T23:56:14.122Z,7.47
2022-09-21T23:58:40.659Z,6.47
